createdAt,value
2018-12-14T00:01:32.603Z,15.40
2018-12-14T00:04:02.974Z,15.70
2018-12-14T00:06:33.509Z,15.80
2018-12-14T00:09:05.459Z,14.20
2018-12-14T00:11:35.875Z,14.37
2018-12-14T00:14:06.399Z,15.73
2018-12-14T00:16:36.880Z,13.23
2018-12-14T00:19:07.356Z,12.90
2018-12-14T00:21:37.754Z,13.70
2018-12-14T00:24:09.053Z,14.27
2018-12-14T00:26:40.403Z,13.80
2018-12-14T00:29:10.717Z,14.60
2018-12-14T00:31:41.706Z,14.10
2018-12-14T00:34:12.639Z,16.80
2018-12-14T00:36:42.890Z,15.83
2018-12-14T00:39:12.991Z,14.03
2018-12-14T00:41:43.442Z,13.93
2018-12-14T00:44:14.028Z,12.93
2018-12-14T00:46:45.619Z,13.40
2018-12-14T00:49:16.381Z,14.33
2018-12-14T00:51:47.179Z,12.97
2018-12-14T00:54:17.900Z,14.43
2018-12-14T00:56:48.680Z,15.07
2018-12-14T00:59:19.078Z,14.27
2018-12-14T01:01:49.340Z,14.70
2018-12-14T01:04:20.070Z,15.73
2018-12-14T01:06:50.755Z,16.17
2018-12-14T01:09:21.374Z,16.37
2018-12-14T01:11:58.162Z,15.77
2018-12-14T01:14:25.516Z,14.60
2018-12-14T01:16:55.985Z,15.17
2018-12-14T01:19:26.541Z,15.87
2018-12-14T01:21:57.779Z,15.00
2018-12-14T01:24:28.528Z,15.20
2018-12-14T01:26:59.580Z,16.00
2018-12-14T01:29:29.654Z,14.70
2018-12-14T01:32:00.749Z,15.37
2018-12-14T01:34:30.846Z,14.80
2018-12-14T01:37:01.435Z,14.30
2018-12-14T01:39:31.914Z,13.83
2018-12-14T01:42:04.946Z,14.40
2018-12-14T01:44:35.165Z,14.73
2018-12-14T01:47:05.935Z,14.03
2018-12-14T01:49:37.605Z,14.00
2018-12-14T01:52:08.283Z,13.67
2018-12-14T01:54:38.882Z,15.00
2018-12-14T01:57:09.473Z,14.27
2018-12-14T01:59:40.125Z,13.70
2018-12-14T02:02:10.575Z,12.23
2018-12-14T02:04:41.492Z,13.93
2018-12-14T02:07:12.044Z,13.33
2018-12-14T02:09:42.655Z,14.37
2018-12-14T02:12:13.414Z,13.70
2018-12-14T02:14:43.203Z,13.77
2018-12-14T02:17:14.018Z,13.27
2018-12-14T02:19:44.934Z,13.40
2018-12-14T02:22:16.361Z,14.40
2018-12-14T02:24:47.429Z,14.00
2018-12-14T02:27:18.419Z,13.67
2018-12-14T02:29:49.424Z,13.70
2018-12-14T02:32:20.465Z,13.40
2018-12-14T02:34:51.576Z,13.33
2018-12-14T02:37:22.327Z,13.27
2018-12-14T02:39:52.510Z,13.67
2018-12-14T02:42:23.977Z,12.20
2018-12-14T02:44:54.402Z,12.93
2018-12-14T02:47:24.419Z,13.10
2018-12-14T02:49:55.212Z,12.93
2018-12-14T02:52:25.783Z,13.17
2018-12-14T02:54:56.613Z,13.37
2018-12-14T02:57:27.548Z,12.67
2018-12-14T02:59:57.565Z,13.20
2018-12-14T03:02:29.688Z,13.40
2018-12-14T03:04:59.745Z,14.27
2018-12-14T03:07:30.481Z,13.43
2018-12-14T03:10:01.104Z,14.03
2018-12-14T03:12:31.850Z,14.03
2018-12-14T03:15:03.481Z,14.07
2018-12-14T03:17:33.370Z,15.80
2018-12-14T03:20:04.973Z,15.47
2018-12-14T03:22:36.069Z,14.87
2018-12-14T03:25:07.123Z,15.73
2018-12-14T03:27:37.851Z,15.73
2018-12-14T03:30:09.593Z,14.83
2018-12-14T03:32:40.735Z,15.23
2018-12-14T03:35:11.339Z,14.87
2018-12-14T03:37:42.018Z,15.60
2018-12-14T03:40:12.590Z,15.57
2018-12-14T03:42:43.158Z,14.80
2018-12-14T03:45:13.240Z,14.83
2018-12-14T03:47:43.956Z,15.30
2018-12-14T03:50:14.692Z,14.03
2018-12-14T03:52:45.302Z,15.40
2018-12-14T03:55:15.764Z,14.77
2018-12-14T03:57:46.118Z,16.60
2018-12-14T04:00:17.877Z,16.30
2018-12-14T04:02:49.138Z,15.20
2018-12-14T04:05:19.976Z,14.37
2018-12-14T04:07:49.938Z,14.30
2018-12-14T04:10:20.617Z,15.17
2018-12-14T04:12:51.336Z,14.57
2018-12-14T04:15:21.955Z,15.30
2018-12-14T04:17:52.777Z,15.00
2018-12-14T04:20:23.819Z,16.03
2018-12-14T04:22:54.290Z,15.57
2018-12-14T04:25:25.131Z,14.77
2018-12-14T04:27:55.913Z,14.87
2018-12-14T04:30:27.468Z,16.97
2018-12-14T04:32:58.282Z,15.07
2018-12-14T04:35:28.871Z,15.67
2018-12-14T04:37:59.685Z,15.80
2018-12-14T04:40:29.745Z,15.27
2018-12-14T04:43:00.443Z,14.33
2018-12-14T04:45:31.196Z,15.87
2018-12-14T04:48:01.989Z,15.73
2018-12-14T04:50:32.518Z,15.60
2018-12-14T04:53:04.258Z,15.10
2018-12-14T04:55:34.965Z,15.47
2018-12-14T04:58:06.227Z,14.47
2018-12-14T05:00:37.272Z,15.63
2018-12-14T05:03:08.695Z,14.50
2018-12-14T05:05:39.211Z,15.40
2018-12-14T05:08:10.224Z,15.23
2018-12-14T05:10:40.169Z,15.57
2018-12-14T05:13:10.955Z,15.53
2018-12-14T05:15:41.753Z,15.03
2018-12-14T05:18:13.426Z,15.93
2018-12-14T05:20:43.586Z,14.97
2018-12-14T05:23:14.693Z,16.50
2018-12-14T05:25:45.269Z,16.17
2018-12-14T05:28:16.146Z,15.07
2018-12-14T05:30:47.280Z,16.10
2018-12-14T05:33:17.925Z,142.80
2018-12-14T05:35:48.352Z,20.30
2018-12-14T05:38:20.572Z,15.47
2018-12-14T05:40:50.752Z,16.67
2018-12-14T05:43:21.531Z,17.07
2018-12-14T05:45:54.096Z,16.20
2018-12-14T05:48:25.351Z,15.90
2018-12-14T05:50:56.591Z,16.17
2018-12-14T05:53:28.002Z,16.40
2018-12-14T05:55:59.321Z,16.70
2018-12-14T05:58:29.585Z,15.17
2018-12-14T06:01:01.173Z,16.57
2018-12-14T06:03:32.255Z,18.33
2018-12-14T06:06:03.120Z,19.50
2018-12-14T06:08:34.182Z,19.07
2018-12-14T06:11:05.591Z,19.43
2018-12-14T06:13:36.945Z,19.03
2018-12-14T06:16:08.142Z,18.97
2018-12-14T06:18:38.161Z,18.70
2018-12-14T06:21:08.539Z,18.77
2018-12-14T06:23:39.448Z,20.70
2018-12-14T06:26:09.775Z,21.60
2018-12-14T06:28:40.223Z,21.03
2018-12-14T06:31:10.667Z,21.77
2018-12-14T06:33:41.543Z,22.20
2018-12-14T06:36:12.260Z,24.23
2018-12-14T06:38:42.917Z,22.67
2018-12-14T06:41:13.623Z,21.47
2018-12-14T06:43:44.850Z,21.43
2018-12-14T06:46:15.915Z,20.43
2018-12-14T06:48:45.850Z,21.10
2018-12-14T06:51:16.962Z,20.63
2018-12-14T06:53:47.625Z,20.73
2018-12-14T06:56:18.252Z,21.60
2018-12-14T06:58:49.091Z,22.10
2018-12-14T07:01:19.364Z,21.93
2018-12-14T07:03:50.016Z,25.20
2018-12-14T07:06:20.939Z,25.20
2018-12-14T07:08:51.418Z,27.77
2018-12-14T07:11:22.062Z,26.93
2018-12-14T07:13:52.721Z,26.37
2018-12-14T07:16:23.708Z,26.57
2018-12-14T07:18:54.952Z,27.70
2018-12-14T07:21:25.604Z,26.87
2018-12-14T07:23:55.667Z,26.40
2018-12-14T07:26:26.947Z,27.53
2018-12-14T07:28:58.319Z,26.43
2018-12-14T07:31:28.538Z,27.37
2018-12-14T07:33:58.998Z,28.50
2018-12-14T07:36:29.789Z,26.10
2018-12-14T07:39:01.162Z,26.73
2018-12-14T07:41:31.462Z,27.90
2018-12-14T07:44:02.050Z,27.40
2018-12-14T07:46:32.625Z,28.73
2018-12-14T07:49:02.472Z,28.17
2018-12-14T07:51:33.097Z,30.87
2018-12-14T07:54:04.635Z,29.63
2018-12-14T07:56:35.478Z,28.43
2018-12-14T07:59:06.610Z,29.20
2018-12-14T08:01:37.409Z,28.97
2018-12-14T08:04:08.293Z,28.20
2018-12-14T08:06:38.378Z,29.33
2018-12-14T08:09:09.254Z,28.90
2018-12-14T08:11:39.665Z,29.43
2018-12-14T08:14:10.531Z,29.27
2018-12-14T08:16:41.317Z,29.43
2018-12-14T08:19:12.420Z,28.93
2018-12-14T08:21:43.048Z,30.50
2018-12-14T08:24:13.896Z,30.33
2018-12-14T08:26:44.586Z,30.00
2018-12-14T08:29:15.681Z,30.07
2018-12-14T08:31:46.294Z,28.30
2018-12-14T08:34:17.108Z,32.00
2018-12-14T08:36:47.912Z,33.90
2018-12-14T08:39:18.605Z,35.00
2018-12-14T08:41:49.264Z,38.53
2018-12-14T08:44:20.008Z,37.53
2018-12-14T08:46:50.483Z,35.20
2018-12-14T08:49:21.204Z,39.07
2018-12-14T08:51:51.575Z,39.17
2018-12-14T08:54:22.418Z,37.87
2018-12-14T08:56:53.205Z,37.60
2018-12-14T08:59:24.030Z,38.13
2018-12-14T09:01:54.182Z,38.90
2018-12-14T09:04:24.942Z,36.17
2018-12-14T09:06:55.720Z,40.30
2018-12-14T09:09:26.277Z,36.67
2018-12-14T09:11:57.148Z,33.40
2018-12-14T09:14:28.206Z,35.80
2018-12-14T09:16:59.102Z,33.20
2018-12-14T09:19:30.002Z,34.90
2018-12-14T09:22:00.548Z,35.63
2018-12-14T09:24:31.492Z,36.47
2018-12-14T09:27:01.684Z,36.00
2018-12-14T09:29:31.639Z,35.87
2018-12-14T09:32:03.381Z,35.77
2018-12-14T09:34:34.230Z,33.93
2018-12-14T09:37:04.840Z,35.67
2018-12-14T09:39:35.886Z,36.13
2018-12-14T09:42:06.673Z,36.17
2018-12-14T09:44:37.540Z,35.13
2018-12-14T09:47:08.452Z,32.43
2018-12-14T09:49:40.225Z,34.60
2018-12-14T09:52:10.762Z,33.13
2018-12-14T09:54:41.680Z,34.50
2018-12-14T09:57:12.269Z,35.77
2018-12-14T09:59:42.924Z,38.50
2018-12-14T10:02:13.856Z,33.43
2018-12-14T10:04:43.664Z,34.27
2018-12-14T10:07:14.088Z,35.63
2018-12-14T10:09:45.082Z,35.83
2018-12-14T10:12:16.809Z,36.00
2018-12-14T10:14:47.524Z,36.40
2018-12-14T10:17:18.113Z,34.03
2018-12-14T10:19:48.212Z,36.90
2018-12-14T10:22:18.826Z,34.37
2018-12-14T10:24:49.897Z,35.10
2018-12-14T10:27:20.094Z,32.87
2018-12-14T10:29:50.854Z,32.20
2018-12-14T10:32:22.441Z,31.57
2018-12-14T10:34:53.172Z,29.83
2018-12-14T10:37:24.587Z,31.43
2018-12-14T10:39:55.165Z,30.13
2018-12-14T10:42:25.278Z,28.50
2018-12-14T10:44:56.056Z,29.17
2018-12-14T10:47:26.785Z,27.70
2018-12-14T10:49:58.046Z,30.43
2018-12-14T10:52:28.513Z,31.03
2018-12-14T10:54:59.403Z,29.83
2018-12-14T10:57:30.294Z,31.00
2018-12-14T11:00:00.672Z,29.07
2018-12-14T11:05:15.557Z,27.80
2018-12-14T11:07:45.389Z,29.50
2018-12-14T11:10:16.238Z,29.50
2018-12-14T11:12:46.853Z,27.60
2018-12-14T11:15:16.627Z,29.70
2018-12-14T11:17:47.321Z,29.70
2018-12-14T11:20:18.322Z,29.00
2018-12-14T11:22:48.542Z,29.17
2018-12-14T11:25:19.607Z,28.33
2018-12-14T11:27:50.846Z,29.17
2018-12-14T11:30:21.700Z,28.97
2018-12-14T11:32:53.525Z,28.67
2018-12-14T11:35:23.877Z,28.20
2018-12-14T11:37:54.717Z,27.47
2018-12-14T11:40:26.407Z,28.13
2018-12-14T11:42:57.295Z,27.23
2018-12-14T11:45:28.180Z,26.27
2018-12-14T11:47:59.499Z,22.57
2018-12-14T11:50:30.458Z,23.57
2018-12-14T11:53:01.870Z,23.53
2018-12-14T11:55:32.420Z,24.60
2018-12-14T11:58:03.426Z,24.97
2018-12-14T12:00:34.606Z,25.67
2018-12-14T12:03:06.154Z,23.27
2018-12-14T12:05:37.577Z,25.20
2018-12-14T12:08:10.357Z,23.93
2018-12-14T12:10:40.956Z,24.82
2018-12-14T12:13:12.403Z,23.77
2018-12-14T12:15:43.731Z,24.60
2018-12-14T12:18:15.070Z,25.23
2018-12-14T12:20:46.747Z,24.87
2018-12-14T12:23:17.869Z,24.23
2018-12-14T12:25:49.425Z,25.27
2018-12-14T12:28:19.967Z,25.27
2018-12-14T12:30:51.014Z,24.73
2018-12-14T12:33:21.971Z,24.87
2018-12-14T12:35:53.166Z,26.03
2018-12-14T12:38:25.173Z,25.07
2018-12-14T12:40:56.180Z,25.63
2018-12-14T12:43:27.164Z,25.30
2018-12-14T12:45:58.430Z,26.13
2018-12-14T12:48:29.637Z,25.43
2018-12-14T12:51:03.298Z,26.13
2018-12-14T12:53:33.533Z,25.50
2018-12-14T12:56:05.189Z,26.63
2018-12-14T12:58:35.968Z,25.97
2018-12-14T13:01:07.174Z,26.57
2018-12-14T13:03:38.194Z,25.50
2018-12-14T13:06:09.164Z,26.43
2018-12-14T13:08:39.787Z,26.13
2018-12-14T13:11:10.872Z,27.17
2018-12-14T13:13:42.350Z,27.87
2018-12-14T13:16:13.380Z,28.53
2018-12-14T13:18:44.033Z,27.40
2018-12-14T13:21:14.768Z,26.87
2018-12-14T13:23:45.390Z,27.90
2018-12-14T13:26:16.234Z,27.90
2018-12-14T13:28:46.810Z,28.77
2018-12-14T13:31:18.468Z,28.43
2018-12-14T13:33:51.553Z,28.73
2018-12-14T13:36:22.478Z,27.63
2018-12-14T13:38:52.874Z,28.40
2018-12-14T13:41:23.756Z,28.63
2018-12-14T13:43:55.501Z,27.50
2018-12-14T13:46:26.413Z,28.33
2018-12-14T13:49:02.772Z,27.67
2018-12-14T13:51:30.592Z,27.37
2018-12-14T13:54:01.690Z,26.90
2018-12-14T13:56:34.304Z,27.70
2018-12-14T13:59:06.142Z,29.43
2018-12-14T14:01:36.842Z,31.63
2018-12-14T14:04:08.056Z,36.87
2018-12-14T14:06:40.827Z,30.50
2018-12-14T14:09:12.849Z,30.57
2018-12-14T14:11:44.201Z,34.33
2018-12-14T14:14:15.509Z,29.53
2018-12-14T14:16:47.866Z,30.57
2018-12-14T14:19:19.726Z,32.07
2018-12-14T14:21:51.744Z,32.17
2018-12-14T14:24:22.027Z,32.67
2018-12-14T14:26:53.482Z,33.77
2018-12-14T14:29:24.005Z,35.33
2018-12-14T14:31:55.343Z,34.27
2018-12-14T14:34:27.037Z,34.17
2018-12-14T14:36:58.752Z,35.17
2018-12-14T14:39:29.617Z,37.63
2018-12-14T14:42:00.818Z,38.07
2018-12-14T14:44:31.743Z,37.23
2018-12-14T14:47:02.760Z,39.47
2018-12-14T14:49:32.923Z,36.03
2018-12-14T14:52:04.100Z,38.57
2018-12-14T14:54:39.851Z,37.43
2018-12-14T14:57:06.695Z,38.27
2018-12-14T14:59:36.537Z,41.27
2018-12-14T15:02:06.514Z,41.73
2018-12-14T15:04:36.506Z,40.00
2018-12-14T15:07:06.508Z,47.20
2018-12-14T15:09:36.378Z,41.97
2018-12-14T15:12:06.371Z,42.57
2018-12-14T15:14:36.447Z,40.27
2018-12-14T15:17:06.619Z,42.87
2018-12-14T15:19:36.693Z,41.90
2018-12-14T15:22:06.667Z,42.90
2018-12-14T15:24:36.644Z,40.40
2018-12-14T15:27:06.637Z,43.00
2018-12-14T15:29:36.646Z,40.87
2018-12-14T15:32:06.749Z,42.03
2018-12-14T15:34:36.989Z,40.73
2018-12-14T15:37:06.945Z,43.00
2018-12-14T15:39:36.830Z,44.90
2018-12-14T15:42:07.000Z,41.20
2018-12-14T15:44:36.895Z,43.77
2018-12-14T15:47:06.709Z,43.80
2018-12-14T15:49:36.689Z,44.63
2018-12-14T15:52:06.687Z,46.40
2018-12-14T15:54:36.613Z,46.13
2018-12-14T15:57:06.633Z,43.30
2018-12-14T15:59:36.762Z,44.47
2018-12-14T16:02:06.988Z,48.47
2018-12-14T16:04:37.139Z,44.23
2018-12-14T16:07:07.086Z,46.00
2018-12-14T16:09:37.083Z,46.67
2018-12-14T16:12:07.217Z,46.73
2018-12-14T16:14:37.182Z,46.40
2018-12-14T16:17:08.625Z,47.43
2018-12-14T16:19:39.015Z,46.23
2018-12-14T16:22:09.131Z,44.23
2018-12-14T16:24:38.988Z,46.27
2018-12-14T16:27:09.054Z,46.03
2018-12-14T16:29:39.234Z,44.50
2018-12-14T16:32:09.222Z,46.73
2018-12-14T16:34:39.290Z,44.00
2018-12-14T16:37:09.306Z,44.97
2018-12-14T16:39:39.407Z,44.37
2018-12-14T16:42:09.527Z,47.30
2018-12-14T16:44:39.540Z,44.30
2018-12-14T16:47:09.742Z,44.97
2018-12-14T16:49:39.725Z,44.87
2018-12-14T16:52:09.894Z,44.50
2018-12-14T16:54:40.791Z,42.23
2018-12-14T16:57:11.825Z,44.77
2018-12-14T16:59:44.089Z,44.10
2018-12-14T17:02:16.164Z,43.67
2018-12-14T17:04:47.340Z,43.00
2018-12-14T17:07:18.579Z,46.27
2018-12-14T17:09:49.373Z,45.67
2018-12-14T17:12:20.222Z,48.07
2018-12-14T17:14:51.149Z,48.23
2018-12-14T17:17:22.035Z,49.73
2018-12-14T17:19:53.109Z,48.77
2018-12-14T17:22:24.157Z,48.93
2018-12-14T17:24:55.435Z,47.93
2018-12-14T17:27:27.050Z,47.57
2018-12-14T17:29:58.058Z,48.37
2018-12-14T17:32:28.659Z,47.23
2018-12-14T17:35:00.845Z,46.13
2018-12-14T17:37:32.514Z,47.13
2018-12-14T17:40:02.339Z,47.70
2018-12-14T17:42:33.440Z,47.80
2018-12-14T17:45:04.740Z,46.03
2018-12-14T17:47:36.064Z,46.67
2018-12-14T17:50:06.853Z,48.13
2018-12-14T17:52:37.292Z,49.67
2018-12-14T17:55:07.752Z,51.80
2018-12-14T17:57:38.195Z,50.57
2018-12-14T18:00:09.796Z,49.90
2018-12-14T18:02:40.386Z,50.03
2018-12-14T18:05:11.560Z,53.70
2018-12-14T18:07:42.828Z,53.23
2018-12-14T18:10:12.890Z,55.70
2018-12-14T18:12:44.193Z,59.47
2018-12-14T18:15:15.572Z,63.43
2018-12-14T18:17:46.391Z,66.67
2018-12-14T18:20:16.605Z,68.53
2018-12-14T18:22:47.877Z,67.43
2018-12-14T18:25:19.383Z,65.87
2018-12-14T18:27:50.484Z,64.90
2018-12-14T18:30:21.718Z,68.17
2018-12-14T18:32:52.987Z,72.50
2018-12-14T18:35:24.008Z,70.97
2018-12-14T18:37:55.294Z,67.57
2018-12-14T18:40:25.089Z,64.90
2018-12-14T18:42:56.353Z,66.73
2018-12-14T18:45:27.834Z,71.10
2018-12-14T18:47:59.020Z,72.03
2018-12-14T18:50:29.872Z,69.10
2018-12-14T18:53:01.103Z,57.13
2018-12-14T18:55:31.883Z,54.30
2018-12-14T18:58:03.494Z,52.10
2018-12-14T19:00:34.331Z,51.50
2018-12-14T19:03:04.906Z,49.70
2018-12-14T19:05:35.685Z,52.17
2018-12-14T19:08:06.645Z,48.33
2018-12-14T19:10:36.595Z,47.13
2018-12-14T19:13:08.846Z,48.83
2018-12-14T19:15:40.300Z,44.40
2018-12-14T19:18:11.897Z,47.73
2018-12-14T19:20:41.983Z,47.57
2018-12-14T19:23:19.427Z,46.53
2018-12-14T19:25:46.601Z,47.73
2018-12-14T19:28:17.694Z,45.30
2018-12-14T19:30:48.773Z,48.87
2018-12-14T19:33:19.518Z,43.23
2018-12-14T19:35:51.080Z,45.60
2018-12-14T19:38:22.280Z,45.10
2018-12-14T19:40:52.219Z,47.47
2018-12-14T19:43:23.150Z,47.43
2018-12-14T19:45:54.379Z,46.97
2018-12-14T19:48:25.707Z,45.03
2018-12-14T19:50:56.810Z,44.80
2018-12-14T19:53:30.811Z,44.67
2018-12-14T19:56:01.884Z,44.97
2018-12-14T19:58:32.271Z,43.93
2018-12-14T20:01:02.750Z,44.00
2018-12-14T20:03:33.790Z,43.97
2018-12-14T20:06:05.211Z,43.30
2018-12-14T20:08:36.177Z,45.03
2018-12-14T20:11:05.952Z,43.43
2018-12-14T20:13:37.625Z,43.50
2018-12-14T20:16:12.789Z,43.03
2018-12-14T20:18:44.021Z,40.57
2018-12-14T20:21:16.381Z,41.77
2018-12-14T20:23:48.435Z,39.83
2018-12-14T20:26:19.322Z,40.27
2018-12-14T20:28:50.590Z,42.63
2018-12-14T20:31:21.252Z,44.50
2018-12-14T20:33:52.891Z,39.30
2018-12-14T20:36:23.948Z,38.27
2018-12-14T20:38:55.272Z,39.63
2018-12-14T20:41:26.067Z,37.87
2018-12-14T20:43:58.890Z,38.40
2018-12-14T20:46:30.001Z,42.33
2018-12-14T20:49:00.868Z,41.07
2018-12-14T20:51:32.012Z,39.43
2018-12-14T20:54:02.930Z,37.77
2018-12-14T20:56:34.436Z,37.47
2018-12-14T20:59:06.216Z,40.27
2018-12-14T21:01:37.988Z,37.37
2018-12-14T21:04:17.305Z,38.47
2018-12-14T21:06:47.655Z,36.97
2018-12-14T21:09:18.311Z,39.77
2018-12-14T21:11:48.482Z,36.93
2018-12-14T21:14:18.735Z,38.93
2018-12-14T21:16:49.043Z,36.93
2018-12-14T21:19:19.274Z,39.70
2018-12-14T21:21:49.587Z,36.90
2018-12-14T21:24:19.704Z,37.30
2018-12-14T21:26:49.838Z,41.20
2018-12-14T21:29:19.960Z,39.97
2018-12-14T21:31:50.218Z,40.27
2018-12-14T21:34:20.242Z,43.20
2018-12-14T21:36:50.305Z,41.70
2018-12-14T21:39:20.487Z,38.73
2018-12-14T21:41:50.254Z,39.50
2018-12-14T21:44:20.491Z,41.67
2018-12-14T21:46:50.581Z,37.17
2018-12-14T21:49:20.650Z,39.90
2018-12-14T21:51:50.828Z,40.83
2018-12-14T21:54:21.183Z,42.73
2018-12-14T21:56:52.678Z,42.90
2018-12-14T21:59:23.338Z,40.43
2018-12-14T22:01:55.432Z,43.93
2018-12-14T22:04:26.302Z,45.67
2018-12-14T22:06:57.347Z,51.07
2018-12-14T22:09:28.012Z,53.07
2018-12-14T22:11:57.907Z,58.30
2018-12-14T22:14:29.244Z,58.37
2018-12-14T22:16:59.394Z,52.37
2018-12-14T22:19:29.314Z,50.10
2018-12-14T22:21:59.461Z,49.00
2018-12-14T22:24:29.928Z,50.30
2018-12-14T22:27:01.022Z,47.63
2018-12-14T22:29:32.814Z,47.57
2018-12-14T22:32:05.592Z,47.50
2018-12-14T22:34:36.401Z,52.07
2018-12-14T22:37:07.848Z,55.17
2018-12-14T22:39:38.665Z,54.10
2018-12-14T22:42:08.438Z,50.27
2018-12-14T22:44:41.136Z,48.97
2018-12-14T22:47:11.769Z,48.43
2018-12-14T22:49:42.141Z,46.77
2018-12-14T22:52:12.660Z,46.40
2018-12-14T22:54:43.341Z,43.27
2018-12-14T22:57:14.011Z,48.13
2018-12-14T22:59:44.561Z,48.33
2018-12-14T23:02:15.114Z,47.30
2018-12-14T23:04:46.173Z,50.47
2018-12-14T23:07:16.300Z,46.03
2018-12-14T23:09:46.954Z,46.93
2018-12-14T23:12:16.707Z,41.63
2018-12-14T23:14:46.870Z,43.83
2018-12-14T23:17:16.955Z,38.87
2018-12-14T23:19:47.001Z,41.03
2018-12-14T23:22:16.985Z,43.00
2018-12-14T23:24:47.445Z,41.63
2018-12-14T23:27:18.642Z,42.33
2018-12-14T23:29:49.640Z,41.90
2018-12-14T23:32:20.455Z,43.07
2018-12-14T23:34:51.151Z,45.17
2018-12-14T23:37:22.041Z,44.53
2018-12-14T23:39:52.619Z,44.67
2018-12-14T23:42:23.304Z,44.93
2018-12-14T23:44:53.988Z,46.17
2018-12-14T23:47:24.952Z,45.73
2018-12-14T23:49:55.780Z,44.40
2018-12-14T23:52:26.750Z,45.43
2018-12-14T23:54:57.360Z,47.23
2018-12-14T23:57:28.028Z,43.00
2018-12-14T23:59:59.112Z,48.97
